Time;durP1;ratioP1;P1;durP2;ratioP2;P2;SDS_P1;SDS_P2;PMS_P1;PMS_P2;Temp;Humidity;BMP_temperature;BMP_pressure;BME280_temperature;BME280_humidity;BME280_pressure;Samples;Min_cycle;Max_cycle;Signal;HPM_P1;HPM_P2
2023/08/21 00:01:38;;;;;;;4.68;2.92;;;;;;;;;;4397758;32;67518;-57
2023/08/21 00:04:24;;;;;;;5.82;2.65;;;;;;;;;;4398606;32;70720;-57
2023/08/21 00:07:11;;;;;;;4.40;2.87;;;;;;;;;;4398717;32;66086;-58
2023/08/21 00:10:01;;;;;;;5.95;2.90;;;;;;;;;;4398698;32;67476;-57
2023/08/21 00:12:54;;;;;;;4.78;2.85;;;;;;;;;;4387681;32;60473;-58
2023/08/21 00:15:43;;;;;;;5.18;2.85;;;;;;;;;;4397196;32;69695;-58
2023/08/21 00:18:30;;;;;;;6.82;3.28;;;;;;;;;;4398725;32;65001;-58
2023/08/21 00:21:16;;;;;;;5.10;2.83;;;;;;;;;;4397298;32;67375;-58
2023/08/21 00:24:03;;;;;;;5.97;3.03;;;;;;;;;;4397362;32;60318;-57
2023/08/21 00:26:50;;;;;;;4.20;2.72;;;;;;;;;;4398610;32;70449;-58
2023/08/21 00:29:36;;;;;;;5.35;2.97;;;;;;;;;;4397134;32;69490;-57
2023/08/21 00:32:23;;;;;;;4.70;2.72;;;;;;;;;;4397222;32;67932;-58
2023/08/21 00:35:09;;;;;;;3.67;2.95;;;;;;;;;;4398316;32;70879;-57
2023/08/21 00:38:01;;;;;;;6.05;3.05;;;;;;;;;;4397179;32;66143;-57
2023/08/21 00:40:49;;;;;;;4.57;3.10;;;;;;;;;;4396845;32;68403;-58
2023/08/21 00:43:38;;;;;;;4.55;3.28;;;;;;;;;;4397117;32;66612;-57
2023/08/21 00:46:25;;;;;;;4.10;2.90;;;;;;;;;;4398077;32;70956;-60
2023/08/21 00:49:12;;;;;;;5.10;3.10;;;;;;;;;;4398420;32;66379;-58
2023/08/21 00:51:59;;;;;;;4.62;3.17;;;;;;;;;;4398375;32;66616;-58
2023/08/21 00:54:46;;;;;;;5.70;3.50;;;;;;;;;;4397051;32;59248;-58
2023/08/21 00:57:32;;;;;;;;;;;;;;;;;;4397424;32;69476;-58
2023/08/21 01:00:19;;;;;;;4.50;3.40;;;;;;;;;;4396899;32;68601;-57
2023/08/21 01:03:06;;;;;;;5.47;3.30;;;;;;;;;;4398044;32;67422;-59
2023/08/21 01:05:54;;;;;;;4.47;3.10;;;;;;;;;;4398296;32;71621;-58
2023/08/21 01:09:17;;;;;;;5.05;3.53;;;;;;;;;;4396799;32;70739;-57
2023/08/21 01:12:31;;;;;;;6.62;3.40;;;;;;;;;;4351960;32;69291;-57
2023/08/21 01:15:18;;;;;;;4.93;3.17;;;;;;;;;;4396795;32;67608;-58
2023/08/21 01:18:05;;;;;;;;;;;;;;;;;;4396880;32;71621;-58
2023/08/21 01:20:51;;;;;;;5.12;3.80;;;;;;;;;;4396854;32;65729;-57
2023/08/21 01:23:38;;;;;;;5.57;3.60;;;;;;;;;;4396294;32;67506;-58
2023/08/21 01:26:25;;;;;;;4.40;3.55;;;;;;;;;;4397976;32;60124;-57
2023/08/21 01:29:13;;;;;;;5.93;3.70;;;;;;;;;;4396645;32;70805;-58
2023/08/21 01:32:21;;;;;;;4.45;3.28;;;;;;;;;;4396574;32;69239;-58
2023/08/21 01:35:08;;;;;;;6.40;4.03;;;;;;;;;;4385399;32;68721;-59
2023/08/21 01:37:55;;;;;;;6.35;4.15;;;;;;;;;;4375165;32;61198;-57
2023/08/21 01:40:43;;;;;;;7.60;4.07;;;;;;;;;;4398018;32;70435;-58
2023/08/21 01:43:31;;;;;;;7.90;4.37;;;;;;;;;;4398027;32;68425;-58
2023/08/21 01:46:18;;;;;;;9.07;4.07;;;;;;;;;;4385904;32;67524;-58
2023/08/21 05:05:00;;;;;;;6.85;4.95;;;;;;;;;;4351832;27;43659;-68
2023/08/21 05:07:48;;;;;;;6.22;5.10;;;;;;;;;;4301344;32;67867;-73
2023/08/21 05:10:35;;;;;;;6.80;4.78;;;;;;;;;;4306929;32;59909;-62
2023/08/21 05:13:22;;;;;;;8.93;5.07;;;;;;;;;;4286807;32;71142;-66
2023/08/21 05:16:11;;;;;;;10.00;5.00;;;;;;;;;;4296915;32;69040;-72
2023/08/21 05:18:57;;;;;;;7.80;5.80;;;;;;;;;;4301452;32;66648;-64
2023/08/21 05:21:45;;;;;;;8.75;5.53;;;;;;;;;;4311230;32;60064;-66
2023/08/21 05:24:32;;;;;;;7.75;5.87;;;;;;;;;;4307116;32;70566;-69
2023/08/21 05:27:19;;;;;;;5.87;4.78;;;;;;;;;;4293443;33;70189;-69
2023/08/21 05:30:06;;;;;;;7.50;5.62;;;;;;;;;;4281802;32;67133;-70
2023/08/21 05:32:56;;;;;;;6.75;4.78;;;;;;;;;;4309250;32;71982;-65
2023/08/21 05:35:43;;;;;;;6.78;5.25;;;;;;;;;;4311258;32;64621;-71
2023/08/21 05:38:30;;;;;;;11.55;5.78;;;;;;;;;;4292591;32;68378;-65
2023/08/21 05:41:17;;;;;;;7.82;6.18;;;;;;;;;;4284104;32;61068;-63
2023/08/21 05:44:05;;;;;;;10.38;5.87;;;;;;;;;;4285119;32;69783;-65
2023/08/21 05:46:52;;;;;;;8.68;6.07;;;;;;;;;;4307968;32;64938;-70
2023/08/21 05:49:39;;;;;;;7.85;5.78;;;;;;;;;;4292074;33;67511;-62
2023/08/21 05:52:26;;;;;;;11.12;5.57;;;;;;;;;;4310369;32;59299;-63
2023/08/21 05:55:13;;;;;;;9.55;6.15;;;;;;;;;;4313873;32;71131;-64
2023/08/21 05:57:59;;;;;;;8.15;5.93;;;;;;;;;;4290144;32;68434;-64
2023/08/21 06:00:47;;;;;;;10.07;5.85;;;;;;;;;;4299217;32;67545;-65
2023/08/21 06:03:34;;;;;;;12.80;6.30;;;;;;;;;;4291845;33;72054;-72
2023/08/21 06:06:21;;;;;;;12.68;6.45;;;;;;;;;;4308488;33;64635;-72
2023/08/21 06:09:08;;;;;;;11.23;6.90;;;;;;;;;;4299936;33;68433;-70
2023/08/21 06:11:54;;;;;;;11.88;6.40;;;;;;;;;;4297734;33;67722;-71
2023/08/21 06:14:41;;;;;;;9.43;6.12;;;;;;;;;;4297443;33;71213;-68
2023/08/21 06:17:29;;;;;;;10.95;6.20;;;;;;;;;;4290113;33;65045;-67
2023/08/21 06:20:16;;;;;;;10.20;6.03;;;;;;;;;;4287065;33;67066;-68
2023/08/21 06:23:02;;;;;;;9.52;5.97;;;;;;;;;;4276167;33;60028;-67
2023/08/21 06:25:50;;;;;;;8.23;5.40;;;;;;;;;;4294255;33;71518;-69
2023/08/21 06:28:36;;;;;;;9.02;5.93;;;;;;;;;;4299560;33;69691;-67
2023/08/21 06:31:23;;;;;;;8.93;6.07;;;;;;;;;;4302058;33;66967;-59
2023/08/21 06:34:09;;;;;;;;;;;;;;;;;;4295762;33;59043;-60
2023/08/21 06:36:59;;;;;;;9.40;5.65;;;;;;;;;;4288343;33;70206;-60
2023/08/21 06:39:46;;;;;;;8.40;5.82;;;;;;;;;;4285733;33;67807;-61
2023/08/21 06:42:33;;;;;;;7.60;4.95;;;;;;;;;;4298122;33;67921;-62
2023/08/21 06:45:20;;;;;;;7.68;5.95;;;;;;;;;;4297425;33;70789;-63
2023/08/21 06:48:07;;;;;;;8.70;5.53;;;;;;;;;;4307433;33;65593;-63
2023/08/21 06:50:53;;;;;;;9.15;5.57;;;;;;;;;;4300086;33;68301;-61
2023/08/21 06:53:40;;;;;;;9.02;5.40;;;;;;;;;;4294245;33;60893;-63
2023/08/21 06:56:26;;;;;;;7.78;5.43;;;;;;;;;;4296800;33;69682;-62
2023/08/21 06:59:13;;;;;;;6.95;4.93;;;;;;;;;;4291413;33;65671;-61
2023/08/21 07:01:59;;;;;;;9.68;5.35;;;;;;;;;;4303857;33;66941;-62
2023/08/21 07:04:46;;;;;;;8.23;4.80;;;;;;;;;;4286973;33;59283;-62
2023/08/21 07:07:33;;;;;;;7.37;5.43;;;;;;;;;;4304569;33;70406;-60
2023/08/21 07:10:20;;;;;;;11.88;5.35;;;;;;;;;;4287062;33;69290;-60
2023/08/21 07:13:07;;;;;;;7.68;5.32;;;;;;;;;;4304492;33;66383;-63
2023/08/21 07:15:54;;;;;;;6.55;4.82;;;;;;;;;;4281282;33;72215;-63
2023/08/21 07:18:41;;;;;;;8.13;5.43;;;;;;;;;;4292415;33;66936;-63
2023/08/21 07:21:27;;;;;;;8.43;5.43;;;;;;;;;;4290997;33;67679;-64
2023/08/21 07:24:14;;;;;;;8.80;5.78;;;;;;;;;;4293168;33;66198;-66
2023/08/21 07:27:01;;;;;;;8.15;5.30;;;;;;;;;;4305162;33;71713;-59
2023/08/21 07:29:47;;;;;;;9.63;5.18;;;;;;;;;;4309118;33;66202;-59
2023/08/21 07:32:34;;;;;;;8.32;5.10;;;;;;;;;;4309341;33;67781;-59
2023/08/21 07:35:20;;;;;;;;;;;;;;;;;;4309502;33;59145;-59
2023/08/21 07:38:07;;;;;;;8.70;5.75;;;;;;;;;;4307246;33;70198;-60
2023/08/21 07:41:07;;;;;;;;;;;;;;;;;;4309456;33;69796;-60
2023/08/21 07:43:54;;;;;;;9.13;4.95;;;;;;;;;;4297994;33;67432;-60
2023/08/21 07:46:40;;;;;;;8.85;5.03;;;;;;;;;;4309518;33;70709;-61
2023/08/21 07:49:27;;;;;;;9.15;5.15;;;;;;;;;;4297489;33;69990;-59
2023/08/21 07:52:15;;;;;;;9.68;5.80;;;;;;;;;;4308851;33;69469;-61
2023/08/21 07:55:03;;;;;;;10.45;5.53;;;;;;;;;;4309087;33;67579;-59
2023/08/21 07:57:49;;;;;;;20.00;6.28;;;;;;;;;;4308686;33;70879;-60
2023/08/21 08:00:36;;;;;;;11.12;5.47;;;;;;;;;;4308867;33;64889;-60
2023/08/21 08:03:23;;;;;;;10.27;4.87;;;;;;;;;;4308559;32;68117;-59
2023/08/21 08:06:09;;;;;;;8.55;4.85;;;;;;;;;;4286997;33;60214;-60
2023/08/21 08:08:56;;;;;;;8.20;4.30;;;;;;;;;;4294144;33;71872;-60
2023/08/21 08:11:42;;;;;;;6.45;5.05;;;;;;;;;;4294805;33;69011;-60
2023/08/21 08:14:29;;;;;;;8.73;4.72;;;;;;;;;;4307540;33;67224;-60
2023/08/21 08:17:15;;;;;;;6.97;4.10;;;;;;;;;;4287227;33;59312;-60
2023/08/21 08:20:02;;;;;;;6.82;4.75;;;;;;;;;;4294815;33;71351;-59
2023/08/21 08:22:49;;;;;;;6.00;4.53;;;;;;;;;;4286932;33;69336;-59
2023/08/21 08:25:35;;;;;;;7.18;4.10;;;;;;;;;;4294587;33;68685;-60
2023/08/21 08:28:22;;;;;;;7.57;4.00;;;;;;;;;;4296986;33;70773;-59
2023/08/21 08:31:18;;;;;;;8.07;4.85;;;;;;;;;;4309210;33;64885;-58
2023/08/21 08:34:04;;;;;;;9.20;4.75;;;;;;;;;;4297709;33;67145;-60
2023/08/21 08:36:51;;;;;;;6.90;4.70;;;;;;;;;;4308523;33;67632;-59
2023/08/21 08:39:38;;;;;;;6.85;4.65;;;;;;;;;;4308478;33;70696;-61
2023/08/21 08:42:25;;;;;;;6.65;4.50;;;;;;;;;;4286771;33;65748;-60
2023/08/21 08:45:14;;;;;;;10.38;4.75;;;;;;;;;;4296920;33;66862;-59
2023/08/21 08:48:02;;;;;;;8.13;4.55;;;;;;;;;;4308640;33;60238;-59
2023/08/21 08:50:48;;;;;;;7.05;4.85;;;;;;;;;;4308391;33;70556;-60
2023/08/21 08:53:35;;;;;;;7.55;4.97;;;;;;;;;;4274096;33;69950;-58
2023/08/21 08:56:23;;;;;;;9.77;4.90;;;;;;;;;;4297201;33;66657;-59
2023/08/21 08:59:10;;;;;;;5.68;4.30;;;;;;;;;;4297057;33;70706;-59
2023/08/21 09:01:56;;;;;;;5.95;3.90;;;;;;;;;;4307038;33;69853;-59
2023/08/21 09:04:43;;;;;;;4.53;3.60;;;;;;;;;;4293915;33;70591;-59
2023/08/21 09:07:29;;;;;;;4.70;3.67;;;;;;;;;;4296569;33;67947;-59
2023/08/21 09:10:16;;;;;;;3.78;2.90;;;;;;;;;;4307061;33;71572;-59
2023/08/21 09:13:08;;;;;;;4.85;3.33;;;;;;;;;;4308422;33;66304;-59
2023/08/21 09:15:56;;;;;;;4.60;2.92;;;;;;;;;;4284019;33;68258;-59
2023/08/21 09:18:51;;;;;;;3.70;2.75;;;;;;;;;;4308461;33;60235;-59
2023/08/21 09:21:39;;;;;;;5.22;3.37;;;;;;;;;;4307940;33;69681;-60
2023/08/21 09:24:26;;;;;;;5.05;3.30;;;;;;;;;;4293844;33;70350;-60
2023/08/21 09:27:17;;;;;;;4.07;2.87;;;;;;;;;;4286261;33;67388;-58
2023/08/21 09:30:09;;;;;;;3.85;2.50;;;;;;;;;;4308250;33;59400;-59
2023/08/21 09:32:59;;;;;;;3.72;3.00;;;;;;;;;;4307894;33;69783;-61
2023/08/21 09:35:46;;;;;;;4.07;2.85;;;;;;;;;;4294094;33;70057;-59
2023/08/21 09:38:36;;;;;;;4.40;3.37;;;;;;;;;;4308096;33;67830;-59
2023/08/21 09:41:23;;;;;;;4.82;3.70;;;;;;;;;;4296576;33;71834;-59
2023/08/21 09:44:10;;;;;;;5.35;4.10;;;;;;;;;;4296522;33;66195;-58
2023/08/21 09:46:56;;;;;;;6.78;4.37;;;;;;;;;;4296148;33;68121;-59
2023/08/21 09:49:44;;;;;;;8.05;4.90;;;;;;;;;;4308199;33;59463;-58
2023/08/21 09:52:31;;;;;;;7.97;4.57;;;;;;;;;;4296237;33;71929;-60
2023/08/21 09:55:37;;;;;;;8.00;6.37;;;;;;;;;;4307732;33;66102;-59
2023/08/21 09:58:23;;;;;;;6.20;5.03;;;;;;;;;;4306579;33;68225;-59
2023/08/21 10:01:14;;;;;;;7.32;5.00;;;;;;;;;;4296541;33;59245;-60
2023/08/21 10:04:03;;;;;;;6.15;4.68;;;;;;;;;;4307664;33;69696;-60
2023/08/21 10:06:52;;;;;;;9.57;6.05;;;;;;;;;;4267179;33;69315;-61
2023/08/21 10:09:40;;;;;;;5.68;3.78;;;;;;;;;;4278923;33;68148;-59
2023/08/21 10:12:27;;;;;;;7.70;6.12;;;;;;;;;;4277343;33;71911;-59
2023/08/21 10:15:14;;;;;;;7.57;6.30;;;;;;;;;;4278958;33;66090;-59
2023/08/21 10:18:20;;;;;;;9.30;6.53;;;;;;;;;;4278424;33;69500;-58
2023/08/21 10:21:16;;;;;;;7.97;5.60;;;;;;;;;;4266992;33;66892;-59
2023/08/21 10:24:03;;;;;;;8.82;6.65;;;;;;;;;;4266960;33;71660;-59
2023/08/21 10:26:50;;;;;;;8.20;6.07;;;;;;;;;;4278317;33;65814;-59
2023/08/21 10:29:39;;;;;;;6.35;5.37;;;;;;;;;;4277283;33;67943;-60
2023/08/21 10:32:26;;;;;;;8.20;5.18;;;;;;;;;;4278549;33;59244;-59
2023/08/21 10:35:19;;;;;;;8.65;6.20;;;;;;;;;;4268528;33;71237;-57
2023/08/21 10:38:10;;;;;;;7.65;5.35;;;;;;;;;;4280772;33;69279;-60
2023/08/21 10:41:08;;;;;;;10.70;6.15;;;;;;;;;;4279719;33;66608;-59
2023/08/21 10:43:55;;;;;;;5.18;4.20;;;;;;;;;;4280618;33;59164;-59
2023/08/21 10:46:51;;;;;;;8.32;6.53;;;;;;;;;;4279562;33;70619;-59
2023/08/21 10:49:38;;;;;;;;;;;;;;;;;;4279686;33;68417;-58
2023/08/21 10:52:38;;;;;;;7.80;6.50;;;;;;;;;;4269625;33;68071;-60
2023/08/21 10:55:24;;;;;;;8.25;5.90;;;;;;;;;;4280540;33;70580;-59
2023/08/21 10:58:11;;;;;;;;;;;;;;;;;;4280877;33;66103;-58
2023/08/21 11:01:00;;;;;;;;;;;;;;;;;;4281226;33;67784;-59
2023/08/21 11:03:50;;;;;;;9.73;6.57;;;;;;;;;;4279506;33;58804;-59
2023/08/21 11:06:37;;;;;;;8.07;6.32;;;;;;;;;;4283422;33;71731;-59
2023/08/21 11:09:24;;;;;;;9.32;7.07;;;;;;;;;;4283993;33;65032;-59
2023/08/21 11:12:13;;;;;;;8.65;6.87;;;;;;;;;;4296096;33;67885;-60
2023/08/21 11:14:59;;;;;;;8.50;6.30;;;;;;;;;;4296937;33;60103;-58
2023/08/21 11:17:58;;;;;;;;;;;;;;;;;;4284250;33;70674;-58
2023/08/21 11:20:45;;;;;;;10.80;6.53;;;;;;;;;;4283554;33;68391;-59
2023/08/21 11:23:35;;;;;;;7.97;6.45;;;;;;;;;;4294949;33;67847;-60
2023/08/21 11:26:23;;;;;;;11.12;5.80;;;;;;;;;;4293418;33;70805;-60
2023/08/21 11:29:09;;;;;;;7.15;5.40;;;;;;;;;;4283575;33;65916;-60
2023/08/21 11:31:56;;;;;;;7.07;5.20;;;;;;;;;;4294839;33;68387;-59
2023/08/21 11:34:49;;;;;;;8.02;5.10;;;;;;;;;;4294862;33;67904;-60
2023/08/21 11:37:36;;;;;;;8.65;5.10;;;;;;;;;;4294371;33;72040;-59
2023/08/21 11:43:08;;;;;;;7.95;4.85;;;;;;;;;;3847540;37;43406;-60
2023/08/21 11:45:55;;;;;;;10.52;5.93;;;;;;;;;;4411295;32;60226;-60
2023/08/21 11:48:42;;;;;;;7.82;5.20;;;;;;;;;;4410881;32;70549;-60
2023/08/21 11:51:29;;;;;;;6.45;5.00;;;;;;;;;;4410912;32;69419;-61
2023/08/21 11:54:18;;;;;;;9.73;5.18;;;;;;;;;;4409569;32;66341;-61
2023/08/21 11:57:12;;;;;;;5.47;4.60;;;;;;;;;;4408866;32;71454;-61
2023/08/21 11:59:58;;;;;;;6.43;5.28;;;;;;;;;;4410837;32;65089;-60
2023/08/21 12:02:55;;;;;;;6.45;4.20;;;;;;;;;;4409577;32;66201;-61
2023/08/21 12:05:45;;;;;;;7.15;4.53;;;;;;;;;;4393654;32;60927;-60
2023/08/21 12:08:32;;;;;;;5.80;4.37;;;;;;;;;;4395329;32;72136;-62
2023/08/21 12:11:19;;;;;;;4.90;3.95;;;;;;;;;;4395763;32;65819;-60
2023/08/21 12:14:06;;;;;;;5.90;4.80;;;;;;;;;;4394481;32;67370;-61
2023/08/21 12:16:54;;;;;;;5.93;4.12;;;;;;;;;;4395642;32;59418;-60
2023/08/21 12:19:41;;;;;;;5.72;4.22;;;;;;;;;;4394238;32;69998;-61
2023/08/21 12:22:28;;;;;;;6.55;3.60;;;;;;;;;;4393985;32;68183;-60
2023/08/21 12:25:16;;;;;;;6.80;4.43;;;;;;;;;;4395480;32;67696;-60
2023/08/21 12:28:03;;;;;;;4.85;3.67;;;;;;;;;;4394008;32;71957;-61
2023/08/21 12:30:49;;;;;;;4.45;3.60;;;;;;;;;;4383778;32;65793;-61
2023/08/21 12:33:36;;;;;;;6.43;3.70;;;;;;;;;;4393113;32;69999;-61
2023/08/21 12:36:23;;;;;;;7.68;3.20;;;;;;;;;;4393141;32;68713;-61
2023/08/21 12:39:09;;;;;;;5.32;3.83;;;;;;;;;;4393869;32;71791;-59
2023/08/21 12:41:56;;;;;;;4.53;3.15;;;;;;;;;;4395280;32;64969;-60
2023/08/21 12:44:43;;;;;;;7.22;3.40;;;;;;;;;;4394457;32;67540;-61
2023/08/21 12:47:30;;;;;;;4.85;3.17;;;;;;;;;;4396162;32;59147;-61
2023/08/21 12:50:16;;;;;;;4.18;3.30;;;;;;;;;;4395380;32;70170;-61
2023/08/21 12:53:02;;;;;;;;;;;;;;;;;;4397784;32;68114;-60
2023/08/21 12:55:49;;;;;;;4.97;2.80;;;;;;;;;;4385805;32;67519;-61
2023/08/21 12:58:35;;;;;;;5.60;3.03;;;;;;;;;;4384039;32;58942;-61
2023/08/21 13:01:22;;;;;;;4.43;2.95;;;;;;;;;;4383533;32;70873;-60
2023/08/21 13:04:09;;;;;;;4.85;2.70;;;;;;;;;;4382495;32;69903;-60
2023/08/21 13:06:56;;;;;;;5.45;3.42;;;;;;;;;;4382602;32;68469;-61
2023/08/21 13:09:42;;;;;;;4.53;3.00;;;;;;;;;;4383252;32;71938;-60
2023/08/21 13:12:30;;;;;;;4.03;2.80;;;;;;;;;;4371876;32;66884;-60
2023/08/21 13:15:16;;;;;;;5.50;3.05;;;;;;;;;;4383309;32;67554;-61
2023/08/21 13:18:04;;;;;;;4.25;2.90;;;;;;;;;;4385026;32;59223;-60
2023/08/21 13:20:50;;;;;;;4.60;2.80;;;;;;;;;;4384360;32;69597;-60
2023/08/21 13:23:37;;;;;;;4.15;2.92;;;;;;;;;;4383215;32;66103;-60
2023/08/21 13:26:25;;;;;;;3.78;2.70;;;;;;;;;;4384628;32;66588;-60
2023/08/21 13:29:12;;;;;;;4.18;2.97;;;;;;;;;;4384480;32;59213;-60
2023/08/21 13:31:58;;;;;;;3.92;2.70;;;;;;;;;;4384292;32;69342;-60
2023/08/21 13:34:45;;;;;;;4.30;2.80;;;;;;;;;;4383123;32;69396;-61
2023/08/21 13:37:31;;;;;;;3.90;2.80;;;;;;;;;;4384378;32;67648;-59
2023/08/21 13:40:18;;;;;;;3.90;3.20;;;;;;;;;;4383992;32;71653;-60
2023/08/21 13:43:07;;;;;;;3.40;2.70;;;;;;;;;;4382843;32;64914;-60
2023/08/21 13:45:53;;;;;;;4.07;2.85;;;;;;;;;;4385155;32;67552;-60
2023/08/21 13:48:39;;;;;;;3.55;2.60;;;;;;;;;;4384871;32;66398;-61
2023/08/21 13:51:26;;;;;;;3.15;2.70;;;;;;;;;;4382437;32;72519;-61
2023/08/21 13:54:12;;;;;;;4.30;2.78;;;;;;;;;;4384109;32;65971;-61
2023/08/21 13:56:59;;;;;;;3.87;2.25;;;;;;;;;;4382888;32;66887;-60
2023/08/21 13:59:46;;;;;;;3.53;2.42;;;;;;;;;;4384378;32;60020;-60
2023/08/21 14:02:36;;;;;;;3.75;2.30;;;;;;;;;;4381906;32;71119;-61
2023/08/21 14:05:23;;;;;;;3.83;2.70;;;;;;;;;;4383015;32;68362;-61
2023/08/21 14:08:09;;;;;;;5.25;2.80;;;;;;;;;;4381944;32;67737;-61
2023/08/21 14:10:56;;;;;;;3.20;2.45;;;;;;;;;;4382331;32;61125;-60
2023/08/21 14:13:43;;;;;;;3.80;2.70;;;;;;;;;;4382115;32;71465;-59
2023/08/21 14:16:29;;;;;;;3.35;2.22;;;;;;;;;;4383821;32;69284;-60
2023/08/21 14:19:15;;;;;;;;;;;;;;;;;;4383144;32;67689;-60
2023/08/21 14:22:03;;;;;;;4.93;2.77;;;;;;;;;;4383777;32;72161;-61
2023/08/21 14:24:49;;;;;;;6.32;3.00;;;;;;;;;;4382663;32;65749;-60
2023/08/21 14:27:36;;;;;;;3.70;2.58;;;;;;;;;;4382366;32;67369;-61
2023/08/21 14:30:22;;;;;;;4.25;2.47;;;;;;;;;;4382478;32;60070;-61
2023/08/21 14:33:09;;;;;;;3.25;2.20;;;;;;;;;;4383422;32;69614;-61
2023/08/21 14:35:56;;;;;;;3.75;2.37;;;;;;;;;;4382384;32;64700;-61
2023/08/21 14:38:42;;;;;;;3.00;2.47;;;;;;;;;;4383435;32;67636;-60
2023/08/21 14:41:28;;;;;;;7.37;2.60;;;;;;;;;;4383554;32;59160;-60
2023/08/21 14:44:15;;;;;;;3.78;2.45;;;;;;;;;;4382164;32;70720;-61
2023/08/21 14:47:02;;;;;;;5.00;2.67;;;;;;;;;;4371469;32;69159;-61
2023/08/21 14:49:51;;;;;;;3.22;2.37;;;;;;;;;;4361142;32;67835;-61
2023/08/21 14:52:37;;;;;;;10.63;3.12;;;;;;;;;;4371182;32;71999;-61
2023/08/21 14:55:24;;;;;;;4.40;2.65;;;;;;;;;;4381549;32;66647;-61
2023/08/21 14:58:10;;;;;;;;;;;;;;;;;;4383959;32;66723;-61
2023/08/21 15:00:57;;;;;;;3.87;2.67;;;;;;;;;;4385753;32;67416;-61
2023/08/21 15:03:43;;;;;;;5.75;2.60;;;;;;;;;;4384800;32;72370;-61
2023/08/21 15:06:30;;;;;;;5.15;2.90;;;;;;;;;;4384043;32;65006;-63
2023/08/21 15:09:16;;;;;;;3.25;2.53;;;;;;;;;;4383751;32;66805;-61
2023/08/21 15:12:03;;;;;;;5.68;2.83;;;;;;;;;;4383754;32;59609;-60
2023/08/21 15:14:49;;;;;;;3.75;2.67;;;;;;;;;;4383650;32;70472;-60
2023/08/21 15:17:36;;;;;;;3.65;2.65;;;;;;;;;;4381882;32;69555;-60
2023/08/21 15:20:23;;;;;;;5.95;3.05;;;;;;;;;;4382209;32;66809;-60
2023/08/21 15:23:09;;;;;;;4.93;2.70;;;;;;;;;;4382444;32;71682;-60
2023/08/21 15:25:56;;;;;;;4.78;3.00;;;;;;;;;;4381546;32;70087;-60
2023/08/21 15:28:43;;;;;;;3.72;2.55;;;;;;;;;;4370956;32;70395;-61
2023/08/21 15:31:29;;;;;;;5.32;2.90;;;;;;;;;;4382275;32;66776;-61
2023/08/21 15:34:16;;;;;;;5.60;2.85;;;;;;;;;;4381120;32;72085;-59
2023/08/21 15:37:04;;;;;;;5.03;3.17;;;;;;;;;;4383474;32;64876;-59
2023/08/21 15:39:50;;;;;;;4.57;2.90;;;;;;;;;;4382480;32;66780;-61
2023/08/21 15:42:37;;;;;;;6.80;2.95;;;;;;;;;;4381821;32;59257;-60
2023/08/21 15:45:24;;;;;;;4.97;3.15;;;;;;;;;;4383442;32;69222;-61
2023/08/21 15:48:10;;;;;;;5.28;3.42;;;;;;;;;;4382153;32;68085;-66
2023/08/21 15:50:57;;;;;;;6.57;3.58;;;;;;;;;;4383254;32;67853;-61
2023/08/21 15:53:43;;;;;;;5.62;3.60;;;;;;;;;;4382268;32;60462;-60
2023/08/21 15:56:29;;;;;;;6.30;4.10;;;;;;;;;;4370920;32;71231;-61
2023/08/21 15:59:15;;;;;;;6.43;4.00;;;;;;;;;;4383269;32;69146;-59
2023/08/21 16:02:03;;;;;;;6.32;3.50;;;;;;;;;;4382107;32;67029;-60
2023/08/21 16:04:49;;;;;;;5.47;3.30;;;;;;;;;;4381948;32;70621;-60
2023/08/21 16:07:35;;;;;;;3.92;2.80;;;;;;;;;;4371330;32;65796;-60
2023/08/21 16:10:22;;;;;;;7.03;2.92;;;;;;;;;;4383092;32;66685;-60
2023/08/21 16:13:09;;;;;;;3.75;2.70;;;;;;;;;;4381839;32;59149;-62
2023/08/21 16:15:55;;;;;;;4.80;2.53;;;;;;;;;;4382804;32;71923;-60
2023/08/21 16:18:41;;;;;;;;;;;;;;;;;;4382160;32;65685;-60
2023/08/21 16:21:28;;;;;;;4.03;2.65;;;;;;;;;;4381386;32;66308;-60
2023/08/21 16:24:14;;;;;;;4.60;2.87;;;;;;;;;;4382951;32;59496;-60
2023/08/21 16:27:01;;;;;;;5.80;2.80;;;;;;;;;;4381192;32;70458;-61
2023/08/21 16:29:48;;;;;;;3.75;2.83;;;;;;;;;;4383844;32;69823;-60
2023/08/21 16:32:35;;;;;;;4.07;2.87;;;;;;;;;;4383348;32;67880;-60
2023/08/21 16:35:21;;;;;;;5.50;3.03;;;;;;;;;;4384092;32;71776;-60
2023/08/21 16:38:08;;;;;;;5.68;2.97;;;;;;;;;;4385090;32;69619;-60
2023/08/21 16:40:54;;;;;;;4.03;2.80;;;;;;;;;;4372330;32;69752;-59
2023/08/21 16:43:41;;;;;;;4.55;3.08;;;;;;;;;;4384915;32;67868;-61
2023/08/21 16:46:28;;;;;;;2.80;2.42;;;;;;;;;;4384757;32;71774;-60
2023/08/21 16:49:15;;;;;;;5.15;2.62;;;;;;;;;;4384990;32;65862;-60
2023/08/21 16:52:01;;;;;;;4.40;2.60;;;;;;;;;;4372314;32;68501;-60
2023/08/21 16:54:48;;;;;;;5.97;2.83;;;;;;;;;;4384088;32;60145;-61
2023/08/21 16:57:34;;;;;;;4.50;2.75;;;;;;;;;;4383066;32;70849;-60
2023/08/21 17:00:21;;;;;;;3.53;2.53;;;;;;;;;;4383526;32;69355;-60
2023/08/21 17:03:08;;;;;;;5.85;2.80;;;;;;;;;;4383266;32;67612;-60
2023/08/21 17:05:55;;;;;;;4.07;2.87;;;;;;;;;;4383748;32;60137;-59
2023/08/21 17:08:41;;;;;;;5.35;3.00;;;;;;;;;;4384554;32;69592;-60
2023/08/21 17:11:28;;;;;;;4.50;3.17;;;;;;;;;;4383307;32;68810;-60
2023/08/21 17:14:15;;;;;;;5.90;2.90;;;;;;;;;;4385756;32;66669;-61
2023/08/21 17:17:03;;;;;;;4.07;2.72;;;;;;;;;;4385679;32;71972;-60
2023/08/21 17:19:49;;;;;;;5.12;2.75;;;;;;;;;;4383316;32;64857;-61
2023/08/21 17:22:36;;;;;;;4.12;2.58;;;;;;;;;;4384386;32;68117;-61
2023/08/21 17:25:22;;;;;;;;;;;;;;;;;;4383574;32;60465;-60
2023/08/21 17:28:09;;;;;;;4.03;2.90;;;;;;;;;;4384587;32;72044;-60
2023/08/21 17:30:55;;;;;;;2.53;1.95;;;;;;;;;;4384304;32;65123;-62
2023/08/21 17:33:42;;;;;;;3.33;2.33;;;;;;;;;;4383024;32;67517;-61
2023/08/21 17:36:28;;;;;;;;;;;;;;;;;;4384968;32;59241;-61
2023/08/21 17:39:15;;;;;;;3.17;2.10;;;;;;;;;;4383127;32;70164;-60
2023/08/21 17:42:02;;;;;;;6.18;2.30;;;;;;;;;;4382546;32;68213;-61
2023/08/21 17:44:48;;;;;;;3.15;2.40;;;;;;;;;;4382964;32;66894;-61
2023/08/21 17:47:35;;;;;;;3.87;2.60;;;;;;;;;;4385465;32;71582;-61
2023/08/21 17:50:23;;;;;;;3.05;2.20;;;;;;;;;;4383060;32;65799;-61
2023/08/21 17:53:10;;;;;;;3.00;2.10;;;;;;;;;;4384469;32;69198;-59
2023/08/21 17:56:00;;;;;;;3.87;2.30;;;;;;;;;;4384409;32;67673;-60
2023/08/21 17:58:47;;;;;;;3.40;2.10;;;;;;;;;;4382725;32;71645;-60
2023/08/21 18:01:34;;;;;;;3.37;2.00;;;;;;;;;;4382282;32;66677;-60
2023/08/21 18:04:21;;;;;;;4.47;2.22;;;;;;;;;;4383789;32;67886;-61
2023/08/21 18:07:08;;;;;;;4.07;2.37;;;;;;;;;;4382761;32;59227;-60
2023/08/21 18:09:55;;;;;;;3.30;2.05;;;;;;;;;;4383840;32;70575;-60
2023/08/21 18:12:41;;;;;;;3.35;2.15;;;;;;;;;;4383876;32;69542;-60
2023/08/21 18:15:30;;;;;;;2.47;2.03;;;;;;;;;;4371384;32;67437;-61
2023/08/21 18:18:17;;;;;;;1.85;1.65;;;;;;;;;;4384078;32;60329;-60
2023/08/21 18:21:05;;;;;;;2.37;1.90;;;;;;;;;;4383718;32;69443;-61
2023/08/21 18:23:52;;;;;;;3.00;2.08;;;;;;;;;;4383542;32;69648;-61
2023/08/21 18:26:41;;;;;;;5.00;2.37;;;;;;;;;;4383686;32;67691;-61
2023/08/21 18:29:27;;;;;;;5.57;2.30;;;;;;;;;;4382309;32;71533;-60
2023/08/21 18:32:15;;;;;;;4.03;1.98;;;;;;;;;;4382373;32;66206;-61
2023/08/21 18:35:05;;;;;;;2.47;1.90;;;;;;;;;;4382319;32;68156;-61
2023/08/21 18:37:51;;;;;;;2.15;1.75;;;;;;;;;;4382527;32;59004;-60
2023/08/21 18:40:38;;;;;;;2.37;1.73;;;;;;;;;;4383172;32;71293;-60
2023/08/21 18:43:25;;;;;;;4.00;2.00;;;;;;;;;;4382448;32;64782;-61
2023/08/21 18:46:13;;;;;;;;;;;;;;;;;;4382917;32;67921;-60
2023/08/21 18:49:00;;;;;;;2.55;1.87;;;;;;;;;;4393377;32;59771;-61
2023/08/21 18:51:46;;;;;;;;;;;;;;;;;;4383749;32;70912;-60
2023/08/21 18:54:33;;;;;;;2.40;1.95;;;;;;;;;;4382249;32;69542;-60
2023/08/21 18:57:19;;;;;;;3.90;2.00;;;;;;;;;;4370867;32;67891;-61
2023/08/21 19:00:11;;;;;;;3.12;2.00;;;;;;;;;;4383508;32;71609;-60
2023/08/21 19:02:58;;;;;;;2.50;2.03;;;;;;;;;;4382274;32;66006;-60
2023/08/21 19:05:46;;;;;;;2.47;1.90;;;;;;;;;;4383206;32;69246;-60
2023/08/21 19:08:32;;;;;;;;;;;;;;;;;;4383438;32;67744;-60
2023/08/21 19:11:19;;;;;;;3.72;2.20;;;;;;;;;;4383294;32;72149;-61
2023/08/21 19:14:05;;;;;;;2.87;2.25;;;;;;;;;;4381348;32;66665;-60
2023/08/21 19:16:52;;;;;;;4.43;2.03;;;;;;;;;;4383169;32;68194;-60
2023/08/21 19:19:38;;;;;;;2.20;2.00;;;;;;;;;;4383228;32;60228;-61
2023/08/21 19:22:25;;;;;;;2.30;1.85;;;;;;;;;;4370009;32;71380;-61
2023/08/21 19:25:12;;;;;;;2.03;1.83;;;;;;;;;;4381857;32;69125;-60
2023/08/21 19:28:03;;;;;;;4.32;1.85;;;;;;;;;;4373317;32;67841;-61
2023/08/21 19:30:49;;;;;;;2.50;2.08;;;;;;;;;;4383615;32;61253;-60
2023/08/21 19:33:36;;;;;;;;;;;;;;;;;;4382043;32;70356;-59
2023/08/21 19:36:22;;;;;;;3.60;2.10;;;;;;;;;;4382152;32;69081;-61
2023/08/21 19:39:09;;;;;;;2.58;2.00;;;;;;;;;;4371104;32;66698;-61
2023/08/21 19:41:56;;;;;;;2.08;1.65;;;;;;;;;;4370631;32;70709;-61
2023/08/21 19:44:43;;;;;;;2.65;2.10;;;;;;;;;;4359521;32;66423;-61
2023/08/21 19:47:29;;;;;;;3.15;1.77;;;;;;;;;;4380800;32;68179;-61
2023/08/21 19:50:18;;;;;;;;;;;;;;;;;;4371406;32;60132;-60
2023/08/21 19:53:05;;;;;;;2.17;1.98;;;;;;;;;;4381421;32;70372;-61
2023/08/21 19:55:54;;;;;;;2.58;1.90;;;;;;;;;;4381524;32;66032;-61
2023/08/21 19:58:41;;;;;;;2.75;1.83;;;;;;;;;;4383433;32;66910;-61
2023/08/21 20:01:28;;;;;;;2.62;1.90;;;;;;;;;;4371078;32;60214;-61
2023/08/21 20:04:14;;;;;;;2.97;2.10;;;;;;;;;;4383025;32;69675;-60
2023/08/21 20:07:01;;;;;;;2.78;1.90;;;;;;;;;;4385430;32;69016;-61
2023/08/21 20:09:48;;;;;;;3.62;2.08;;;;;;;;;;4384283;32;67782;-60